createdAt,value
2023-01-11T00:01:08.351Z,94943.54
2023-01-11T00:03:36.387Z,94948.63
2023-01-11T00:06:05.119Z,94951.31
2023-01-11T00:08:33.204Z,94960.59
2023-01-11T00:11:02.462Z,94970.31
2023-01-11T00:13:32.112Z,94972.24
2023-01-11T00:16:06.555Z,94975.00
2023-01-11T00:18:35.794Z,94967.17
2023-01-11T00:21:05.791Z,94960.23
2023-01-11T00:23:35.540Z,94962.31
2023-01-11T00:26:12.185Z,94975.04
2023-01-11T00:28:40.286Z,94976.65
2023-01-11T00:31:09.386Z,94978.85
2023-01-11T00:33:37.526Z,94981.00
2023-01-11T00:36:05.801Z,94981.04
2023-01-11T00:38:53.708Z,94979.68
2023-01-11T00:41:42.131Z,94989.29
2023-01-11T00:44:29.770Z,94985.81
2023-01-11T00:47:17.173Z,94984.52
2023-01-11T00:49:45.287Z,94990.52
2023-01-11T00:52:13.471Z,94993.60
2023-01-11T00:54:42.315Z,95003.57
2023-01-11T00:57:10.355Z,95001.52
2023-01-11T00:59:39.678Z,95001.13
2023-01-11T01:02:09.262Z,95001.00
2023-01-11T01:04:38.027Z,94998.55
2023-01-11T01:07:07.072Z,95000.52
2023-01-11T01:09:35.179Z,94993.98
2023-01-11T01:12:04.160Z,94988.40
2023-01-11T01:14:33.564Z,94990.09
2023-01-11T01:17:05.174Z,94982.46
2023-01-11T01:19:35.666Z,94990.17
2023-01-11T01:22:04.618Z,94995.46
2023-01-11T01:24:33.996Z,94988.89
2023-01-11T01:27:02.007Z,94980.30
2023-01-11T01:29:30.226Z,94976.09
2023-01-11T01:31:58.223Z,94977.46
2023-01-11T01:34:26.411Z,94983.19
2023-01-11T01:36:54.436Z,94990.36
2023-01-11T01:39:22.446Z,94999.14
2023-01-11T01:41:50.524Z,95004.14
2023-01-11T01:44:56.844Z,95015.02
2023-01-11T01:47:37.402Z,95023.10
2023-01-11T01:50:12.890Z,95024.20
2023-01-11T01:52:44.743Z,95021.88
2023-01-11T01:55:20.073Z,95022.75
2023-01-11T01:57:48.095Z,95018.42
2023-01-11T02:00:16.539Z,95018.84
2023-01-11T02:02:45.514Z,95022.85
2023-01-11T02:05:16.073Z,95031.89
2023-01-11T02:07:46.420Z,95032.89
2023-01-11T02:10:22.551Z,95032.59
2023-01-11T02:12:58.339Z,95025.98
2023-01-11T02:15:26.637Z,95022.45
2023-01-11T02:17:54.831Z,95028.23
2023-01-11T02:21:31.056Z,95030.96
2023-01-11T02:24:08.163Z,95037.70
2023-01-11T02:27:09.820Z,95030.84
2023-01-11T02:29:43.999Z,95038.27
2023-01-11T02:32:39.524Z,95051.61
2023-01-11T02:35:31.587Z,95059.88
2023-01-11T02:38:05.887Z,95066.70
2023-01-11T02:40:58.967Z,95059.40
2023-01-11T02:43:52.185Z,95063.29
2023-01-11T02:46:22.932Z,95070.29
2023-01-11T02:49:29.508Z,95067.73
2023-01-11T02:52:12.874Z,95056.00
2023-01-11T02:54:45.134Z,95049.19
2023-01-11T02:57:15.633Z,95051.60
2023-01-11T02:59:49.009Z,95047.21
2023-01-11T03:02:17.063Z,95048.81
2023-01-11T03:04:45.164Z,95045.95
2023-01-11T03:07:39.404Z,95044.02
2023-01-11T03:10:19.373Z,95050.09
2023-01-11T03:13:02.675Z,95054.66
2023-01-11T03:15:43.082Z,95054.27
2023-01-11T03:18:28.248Z,95055.20
2023-01-11T03:21:44.153Z,95053.30
2023-01-11T03:24:33.966Z,95057.67
2023-01-11T03:27:14.731Z,95057.15
2023-01-11T03:29:52.062Z,95063.41
2023-01-11T03:32:44.779Z,95067.38
2023-01-11T03:35:15.956Z,95063.12
2023-01-11T03:38:07.346Z,95067.05
2023-01-11T03:40:40.768Z,95071.14
2023-01-11T03:43:13.817Z,95077.35
2023-01-11T03:46:10.603Z,95083.59
2023-01-11T03:48:49.015Z,95084.05
2023-01-11T03:51:28.013Z,95085.31
2023-01-11T03:53:58.395Z,95081.33
2023-01-11T03:56:39.854Z,95080.71
2023-01-11T03:59:07.995Z,95081.49
2023-01-11T04:01:37.886Z,95077.00
2023-01-11T04:04:06.104Z,95082.46
2023-01-11T04:06:37.180Z,95079.35
2023-01-11T04:09:06.756Z,95080.83
2023-01-11T04:11:34.965Z,95082.78
2023-01-11T04:14:03.060Z,95085.89
2023-01-11T04:16:31.151Z,95078.13
2023-01-11T04:18:59.175Z,95075.74
2023-01-11T04:21:27.152Z,95079.31
2023-01-11T04:23:55.303Z,95078.95
2023-01-11T04:26:23.271Z,95081.42
2023-01-11T04:28:53.429Z,95087.58
2023-01-11T04:31:22.416Z,95086.62
2023-01-11T04:33:50.519Z,95093.38
2023-01-11T04:36:18.696Z,95096.92
2023-01-11T04:38:46.861Z,95097.62
2023-01-11T04:41:33.719Z,95101.48
2023-01-11T04:44:01.873Z,95102.55
2023-01-11T04:46:30.004Z,95104.71
2023-01-11T04:48:58.338Z,95110.19
2023-01-11T04:51:26.357Z,95112.54
2023-01-11T04:53:54.382Z,95108.10
2023-01-11T04:56:22.478Z,95105.46
2023-01-11T04:58:50.479Z,95118.20
2023-01-11T05:01:19.731Z,95123.65
2023-01-11T05:03:48.172Z,95118.30
2023-01-11T05:06:16.268Z,95118.96
2023-01-11T05:08:47.948Z,95123.47
2023-01-11T05:11:17.584Z,95116.85
2023-01-11T05:13:45.762Z,95120.16
2023-01-11T05:16:15.802Z,95128.65
2023-01-11T05:18:52.951Z,95135.64
2023-01-11T05:21:23.849Z,95137.75
2023-01-11T05:23:53.023Z,95137.23
2023-01-11T05:26:25.550Z,95143.69
2023-01-11T05:28:56.482Z,95152.89
2023-01-11T05:31:25.841Z,95153.13
2023-01-11T05:33:56.415Z,95152.10
2023-01-11T05:36:25.756Z,95159.83
2023-01-11T05:38:56.033Z,95164.44
2023-01-11T05:41:26.914Z,95171.44
2023-01-11T05:44:14.271Z,95176.77
2023-01-11T05:46:44.063Z,95171.32
2023-01-11T05:49:14.041Z,95169.59
2023-01-11T05:51:43.315Z,95168.35
2023-01-11T05:54:14.457Z,95169.67
2023-01-11T05:56:43.077Z,95164.09
2023-01-11T05:59:11.997Z,95161.91
2023-01-11T06:01:40.289Z,95169.55
2023-01-11T06:04:08.797Z,95178.65
2023-01-11T06:06:37.223Z,95181.45
2023-01-11T06:09:05.367Z,95183.88
2023-01-11T06:11:36.215Z,95188.27
2023-01-11T06:14:04.352Z,95190.02
2023-01-11T06:16:32.500Z,95191.00
2023-01-11T06:19:01.160Z,95192.17
2023-01-11T06:21:29.241Z,95197.26
2023-01-11T06:23:57.325Z,95194.16
2023-01-11T06:26:25.372Z,95191.13
2023-01-11T06:28:53.755Z,95190.37
2023-01-11T06:31:21.968Z,95190.48
2023-01-11T06:33:50.162Z,95191.96
2023-01-11T06:36:18.216Z,95204.98
2023-01-11T06:38:46.329Z,95215.61
2023-01-11T06:41:14.403Z,95228.23
2023-01-11T06:43:42.824Z,95237.34
2023-01-11T06:46:16.166Z,95243.20
2023-01-11T06:48:45.087Z,95244.71
2023-01-11T06:51:13.890Z,95247.45
2023-01-11T06:53:43.826Z,95246.30
2023-01-11T06:56:15.593Z,95250.11
2023-01-11T06:58:46.754Z,95250.34
2023-01-11T07:01:16.351Z,95258.61
2023-01-11T07:03:45.544Z,95270.23
2023-01-11T07:06:14.524Z,95274.46
2023-01-11T07:08:42.856Z,95279.98
2023-01-11T07:11:11.036Z,95287.71
2023-01-11T07:13:39.550Z,95285.63
2023-01-11T07:16:07.975Z,95288.05
2023-01-11T07:18:37.397Z,95290.92
2023-01-11T07:21:05.510Z,95294.24
2023-01-11T07:23:33.606Z,95293.21
2023-01-11T07:26:01.701Z,95286.83
2023-01-11T07:28:30.870Z,95283.52
2023-01-11T07:31:00.168Z,95286.47
2023-01-11T07:33:28.384Z,95295.81
2023-01-11T07:35:58.423Z,95295.73
2023-01-11T07:38:30.877Z,95304.41
2023-01-11T07:40:59.091Z,95307.91
2023-01-11T07:43:27.183Z,95304.47
2023-01-11T07:45:57.656Z,95308.31
2023-01-11T07:48:27.089Z,95317.74
2023-01-11T07:50:55.701Z,95323.96
2023-01-11T07:53:26.368Z,95321.98
2023-01-11T07:55:57.879Z,95335.52
2023-01-11T07:58:26.078Z,95343.98
2023-01-11T08:01:00.068Z,95342.55
2023-01-11T08:03:28.475Z,95342.84
2023-01-11T08:05:56.864Z,95340.77
2023-01-11T08:08:25.298Z,95334.18
2023-01-11T08:11:12.165Z,95339.77
2023-01-11T08:13:58.918Z,95340.02
2023-01-11T08:16:27.513Z,95334.95
2023-01-11T08:18:55.852Z,95332.86
2023-01-11T08:21:24.103Z,95332.42
2023-01-11T08:23:59.790Z,95328.80
2023-01-11T08:26:27.981Z,95334.20
2023-01-11T08:28:56.303Z,95337.39
2023-01-11T08:31:26.015Z,95333.46
2023-01-11T08:33:54.244Z,95335.48
2023-01-11T08:36:24.545Z,95338.21
2023-01-11T08:38:59.471Z,95345.82
2023-01-11T08:41:27.822Z,95348.69
2023-01-11T08:43:56.045Z,95353.42
2023-01-11T08:46:24.248Z,95353.88
2023-01-11T08:48:55.581Z,95349.00
2023-01-11T08:51:23.839Z,95350.36
2023-01-11T08:53:53.089Z,95348.65
2023-01-11T08:56:21.675Z,95351.23
2023-01-11T08:58:49.786Z,95350.52
2023-01-11T09:01:17.870Z,95355.33
2023-01-11T09:03:46.075Z,95363.20
2023-01-11T09:06:14.325Z,95364.52
2023-01-11T09:08:42.830Z,95369.92
2023-01-11T09:11:30.802Z,95367.52
2023-01-11T09:13:59.065Z,95361.77
2023-01-11T09:16:27.212Z,95375.92
2023-01-11T09:18:55.929Z,95377.78
2023-01-11T09:21:23.962Z,95372.08
2023-01-11T09:23:52.174Z,95371.46
2023-01-11T09:26:20.526Z,95370.34
2023-01-11T09:28:48.875Z,95366.65
2023-01-11T09:31:17.391Z,95372.79
2023-01-11T09:33:45.547Z,95372.05
2023-01-11T09:36:15.314Z,95372.38
2023-01-11T09:38:44.054Z,95376.88
2023-01-11T09:41:21.642Z,95371.45
2023-01-11T09:44:03.972Z,95364.71
2023-01-11T09:46:33.644Z,95366.09
2023-01-11T09:49:03.626Z,95373.41
2023-01-11T09:51:35.934Z,95386.59
2023-01-11T09:54:08.257Z,95395.31
2023-01-11T09:56:48.040Z,95385.58
2023-01-11T09:59:44.375Z,95371.48
2023-01-11T10:03:00.161Z,95363.72
2023-01-11T10:05:51.619Z,95363.34
2023-01-11T10:18:28.984Z,95384.88
2023-01-11T10:18:41.377Z,95393.48
2023-01-11T10:20:40.055Z,95408.83
2023-01-11T10:23:25.552Z,95399.90
2023-01-11T10:25:58.941Z,95387.39
2023-01-11T10:28:43.254Z,95389.56
2023-01-11T10:31:30.229Z,95384.39
2023-01-11T10:34:04.658Z,95387.45
2023-01-11T10:37:03.831Z,95391.05
2023-01-11T10:39:43.713Z,95400.13
2023-01-11T10:42:21.719Z,95395.91
2023-01-11T10:45:00.211Z,95392.30
2023-01-11T10:47:42.719Z,95401.06
2023-01-11T10:50:32.847Z,95406.50
2023-01-11T10:53:12.925Z,95401.46
2023-01-11T10:55:57.764Z,95392.02
2023-01-11T10:58:38.999Z,95402.12
2023-01-11T11:01:22.872Z,95406.92
2023-01-11T11:04:26.087Z,95399.48
2023-01-11T11:07:38.302Z,95396.61
2023-01-11T11:10:35.915Z,95398.45
2023-01-11T11:13:39.927Z,95406.77
2023-01-11T11:16:35.357Z,95401.18
2023-01-11T11:19:04.181Z,95393.30
2023-01-11T11:21:35.758Z,95391.30
2023-01-11T11:24:33.907Z,95394.00
2023-01-11T11:27:27.613Z,95389.24
2023-01-11T11:29:57.295Z,95389.67
2023-01-11T11:32:36.772Z,95384.65
2023-01-11T11:35:08.181Z,95387.55
2023-01-11T11:37:44.455Z,95394.48
2023-01-11T11:40:32.714Z,95400.01
2023-01-11T11:43:21.675Z,95400.39
2023-01-11T11:45:52.050Z,95395.15
2023-01-11T11:48:20.468Z,95394.92
2023-01-11T11:50:50.642Z,95392.54
2023-01-11T11:53:36.734Z,95396.44
2023-01-11T11:56:18.040Z,95391.04
2023-01-11T11:58:47.297Z,95394.55
2023-01-11T12:01:35.628Z,95397.41
2023-01-11T12:04:21.563Z,95390.54
2023-01-11T12:07:09.246Z,95381.16
2023-01-11T12:09:41.810Z,95382.41
2023-01-11T12:12:16.818Z,95392.32
2023-01-11T12:15:06.915Z,95392.67
2023-01-11T12:17:35.527Z,95389.75
2023-01-11T12:20:24.040Z,95383.27
2023-01-11T12:23:14.170Z,95382.41
2023-01-11T12:25:47.465Z,95385.30
2023-01-11T12:28:28.425Z,95389.80
2023-01-11T12:31:06.883Z,95391.57
2023-01-11T12:33:35.116Z,95389.17
2023-01-11T12:36:33.301Z,95385.84
2023-01-11T12:39:22.261Z,95391.59
2023-01-11T12:42:07.027Z,95393.27
2023-01-11T12:45:04.905Z,95391.34
2023-01-11T12:48:11.387Z,95393.85
2023-01-11T12:51:02.854Z,95390.53
2023-01-11T12:53:46.226Z,95387.45
2023-01-11T12:56:39.438Z,95389.23
2023-01-11T12:59:07.369Z,95392.52
2023-01-11T13:01:47.661Z,95393.21
2023-01-11T13:04:24.309Z,95391.62
2023-01-11T13:07:27.068Z,95387.35
2023-01-11T13:10:34.503Z,95388.70
2023-01-11T13:13:34.595Z,95387.41
2023-01-11T13:16:26.228Z,95396.15
2023-01-11T13:19:03.524Z,95402.96
2023-01-11T13:21:53.507Z,95408.02
2023-01-11T13:24:28.810Z,95406.48
2023-01-11T13:27:07.612Z,95412.25
2023-01-11T13:29:37.981Z,95415.82
2023-01-11T13:32:13.664Z,95418.19
2023-01-11T13:34:50.572Z,95421.60
2023-01-11T13:37:21.618Z,95417.46
2023-01-11T13:40:16.280Z,95421.23
2023-01-11T13:42:59.536Z,95421.64
2023-01-11T13:45:37.885Z,95421.19
2023-01-11T13:48:33.890Z,95419.98
2023-01-11T13:51:35.048Z,95421.55
2023-01-11T13:54:48.907Z,95419.27
2023-01-11T13:57:35.311Z,95419.99
2023-01-11T14:00:15.230Z,95423.34
2023-01-11T14:03:05.370Z,95422.85
2023-01-11T14:05:44.240Z,95423.76
2023-01-11T14:08:22.701Z,95428.88
2023-01-11T14:10:56.896Z,95422.54
2023-01-11T14:13:53.622Z,95422.64
2023-01-11T14:16:27.862Z,95422.87
2023-01-11T14:19:13.020Z,95426.64
2023-01-11T14:21:47.220Z,95429.92
2023-01-11T14:24:18.083Z,95429.27
2023-01-11T14:27:04.649Z,95425.92
2023-01-11T14:30:12.764Z,95419.45
2023-01-11T14:32:56.340Z,95412.88
2023-01-11T14:35:39.836Z,95417.75
2023-01-11T14:38:42.289Z,95419.13
2023-01-11T14:41:13.679Z,95423.38
2023-01-11T14:44:00.026Z,95426.52
2023-01-11T14:46:56.295Z,95425.28
2023-01-11T14:49:38.484Z,95424.52
2023-01-11T14:52:34.414Z,95423.00
2023-01-11T14:55:16.466Z,95426.94
2023-01-11T14:58:01.557Z,95428.17
2023-01-11T15:00:29.629Z,95426.14
2023-01-11T15:03:00.519Z,95429.11
2023-01-11T15:05:29.347Z,95430.37
2023-01-11T15:08:28.606Z,95432.30
2023-01-11T15:10:59.011Z,95431.95
2023-01-11T15:13:51.711Z,95434.73
2023-01-11T15:16:42.824Z,95444.66
2023-01-11T15:19:25.341Z,95448.98
2023-01-11T15:21:55.969Z,95449.18
2023-01-11T15:24:31.030Z,95450.38
2023-01-11T15:27:01.554Z,95454.04
2023-01-11T15:29:33.804Z,95456.48
2023-01-11T15:32:01.962Z,95455.29
2023-01-11T15:34:32.953Z,95462.81
2023-01-11T15:37:01.591Z,95467.50
2023-01-11T15:39:48.751Z,95463.05
2023-01-11T15:42:16.783Z,95459.20
2023-01-11T15:45:09.096Z,95465.66
2023-01-11T15:47:43.399Z,95464.31
2023-01-11T15:50:29.860Z,95466.56
2023-01-11T15:53:23.011Z,95470.84
2023-01-11T15:56:16.305Z,95477.05
2023-01-11T15:59:17.995Z,95474.26
2023-01-11T16:01:58.790Z,95474.11
2023-01-11T16:05:22.730Z,95471.73
2023-01-11T16:08:17.982Z,95474.98
2023-01-11T16:11:03.273Z,95481.80
2023-01-11T16:13:48.054Z,95482.91
2023-01-11T16:16:27.170Z,95484.56
2023-01-11T16:18:59.107Z,95489.58
2023-01-11T16:21:36.232Z,95490.96
2023-01-11T16:24:07.330Z,95492.80
2023-01-11T16:26:38.598Z,95498.69
2023-01-11T16:29:24.812Z,95497.11
2023-01-11T16:32:04.847Z,95496.39
2023-01-11T16:34:44.050Z,95504.17
2023-01-11T16:37:43.814Z,95503.65
2023-01-11T16:40:17.428Z,95512.01
2023-01-11T16:42:53.752Z,95515.88
2023-01-11T16:45:25.533Z,95519.25
2023-01-11T16:48:04.687Z,95516.86
2023-01-11T16:50:34.876Z,95516.42
2023-01-11T16:53:05.136Z,95517.20
2023-01-11T16:55:42.560Z,95515.95
2023-01-11T16:58:31.266Z,95520.27
2023-01-11T17:01:01.010Z,95522.17
2023-01-11T17:03:51.307Z,95522.26
2023-01-11T17:06:22.133Z,95527.63
2023-01-11T17:08:56.715Z,95526.23
2023-01-11T17:11:44.602Z,95522.75
2023-01-11T17:14:48.853Z,95521.14
2023-01-11T17:17:17.423Z,95522.38
2023-01-11T17:19:48.134Z,95526.58
2023-01-11T17:22:26.081Z,95534.16
2023-01-11T17:24:58.820Z,95540.11
2023-01-11T17:27:40.769Z,95543.95
2023-01-11T17:30:29.061Z,95552.71
2023-01-11T17:33:01.653Z,95553.51
2023-01-11T17:35:33.958Z,95553.14
2023-01-11T17:38:06.181Z,95554.98
2023-01-11T17:40:40.304Z,95557.41
2023-01-11T17:43:44.311Z,95551.62
2023-01-11T17:46:23.128Z,95554.40
2023-01-11T17:48:59.695Z,95558.73
2023-01-11T17:51:33.978Z,95557.52
2023-01-11T17:54:02.107Z,95551.98
2023-01-11T17:56:33.089Z,95557.60
2023-01-11T17:59:23.755Z,95558.00
2023-01-11T18:01:57.896Z,95557.73
2023-01-11T18:04:27.891Z,95560.35
2023-01-11T18:07:28.645Z,95558.96
2023-01-11T18:10:02.165Z,95564.08
2023-01-11T18:12:34.976Z,95565.94
2023-01-11T18:15:06.513Z,95567.33
2023-01-11T18:17:39.040Z,95568.23
2023-01-11T18:20:16.094Z,95563.42
2023-01-11T18:22:57.406Z,95563.27
2023-01-11T18:25:28.339Z,95566.20
2023-01-11T18:28:11.829Z,95572.79
2023-01-11T18:30:52.508Z,95572.07
2023-01-11T18:33:24.057Z,95572.23
2023-01-11T18:35:54.995Z,95578.34
2023-01-11T18:38:25.844Z,95582.67
2023-01-11T18:40:54.509Z,95588.66
2023-01-11T18:43:31.099Z,95586.69
2023-01-11T18:45:59.243Z,95590.80
2023-01-11T18:48:27.226Z,95594.66
2023-01-11T18:50:56.030Z,95590.83
2023-01-11T18:53:24.629Z,95590.13
2023-01-11T18:55:52.744Z,95589.77
2023-01-11T18:58:21.066Z,95596.70
2023-01-11T19:00:49.388Z,95600.64
2023-01-11T19:03:17.509Z,95607.19
2023-01-11T19:05:46.505Z,95607.48
2023-01-11T19:08:14.655Z,95610.39
2023-01-11T19:10:42.804Z,95612.27
2023-01-11T19:13:10.873Z,95611.42
2023-01-11T19:15:38.995Z,95610.98
2023-01-11T19:18:07.110Z,95617.70
2023-01-11T19:20:36.888Z,95619.42
2023-01-11T19:23:04.969Z,95623.81
2023-01-11T19:25:33.043Z,95627.61
2023-01-11T19:28:05.377Z,95628.76
2023-01-11T19:30:33.663Z,95634.33
2023-01-11T19:33:01.764Z,95633.14
2023-01-11T19:35:29.818Z,95634.96
2023-01-11T19:37:57.835Z,95638.41
2023-01-11T19:40:25.862Z,95637.16
2023-01-11T19:42:53.918Z,95632.42
2023-01-11T19:45:21.911Z,95630.11
2023-01-11T19:47:50.047Z,95631.98
2023-01-11T19:50:18.566Z,95637.99
2023-01-11T19:52:47.006Z,95644.25
2023-01-11T19:55:15.024Z,95647.98
2023-01-11T19:57:43.085Z,95644.38
2023-01-11T20:00:14.273Z,95648.02
2023-01-11T20:02:43.790Z,95647.79
2023-01-11T20:05:13.624Z,95647.38
2023-01-11T20:07:41.730Z,95648.33
2023-01-11T20:10:10.276Z,95647.60
2023-01-11T20:12:38.266Z,95651.75
2023-01-11T20:15:07.361Z,95650.83
2023-01-11T20:17:37.957Z,95651.75
2023-01-11T20:20:07.254Z,95650.13
2023-01-11T20:22:36.217Z,95642.09
2023-01-11T20:25:04.793Z,95641.38
2023-01-11T20:27:34.228Z,95636.35
2023-01-11T20:30:02.264Z,95634.13
2023-01-11T20:32:41.391Z,95638.39
2023-01-11T20:35:10.921Z,95635.58
2023-01-11T20:37:39.326Z,95638.80
2023-01-11T20:40:08.143Z,95640.52
2023-01-11T20:42:36.217Z,95638.39
2023-01-11T20:45:04.885Z,95640.27
2023-01-11T20:47:32.980Z,95642.07
2023-01-11T20:50:01.334Z,95644.85
2023-01-11T20:52:29.595Z,95645.95
2023-01-11T20:54:57.598Z,95656.02
2023-01-11T20:57:29.377Z,95645.09
2023-01-11T20:59:57.680Z,95642.56
2023-01-11T21:02:25.859Z,95643.79
2023-01-11T21:04:54.013Z,95642.23
2023-01-11T21:07:22.089Z,95645.79
2023-01-11T21:09:50.122Z,95643.83
2023-01-11T21:12:19.658Z,95643.16
2023-01-11T21:14:47.825Z,95645.31
2023-01-11T21:17:16.685Z,95648.14
2023-01-11T21:19:45.077Z,95643.84
2023-01-11T21:22:13.129Z,95645.56
2023-01-11T21:24:41.262Z,95648.14
2023-01-11T21:27:09.429Z,95652.38
2023-01-11T21:29:37.612Z,95662.90
2023-01-11T21:32:06.020Z,95666.73
2023-01-11T21:34:34.061Z,95666.85
2023-01-11T21:37:02.240Z,95666.61
2023-01-11T21:39:30.524Z,95665.20
2023-01-11T21:41:59.651Z,95669.51
2023-01-11T21:44:31.911Z,95670.49
2023-01-11T21:47:06.003Z,95673.69
2023-01-11T21:49:34.421Z,95669.29
2023-01-11T21:52:02.648Z,95670.50
2023-01-11T21:54:30.800Z,95669.58
2023-01-11T21:56:58.777Z,95659.91
2023-01-11T21:59:26.868Z,95650.02
2023-01-11T22:01:54.880Z,95644.70
2023-01-11T22:04:22.932Z,95645.64
2023-01-11T22:06:54.199Z,95653.75
2023-01-11T22:09:24.645Z,95659.90
2023-01-11T22:11:52.866Z,95653.24
2023-01-11T22:14:21.530Z,95645.05
2023-01-11T22:16:49.691Z,95652.52
2023-01-11T22:19:17.953Z,95652.72
2023-01-11T22:21:46.356Z,95652.34
2023-01-11T22:24:15.491Z,95649.45
2023-01-11T22:26:43.920Z,95643.66
2023-01-11T22:29:12.366Z,95639.55
2023-01-11T22:32:07.019Z,95634.00
2023-01-11T22:34:36.005Z,95629.89
2023-01-11T22:37:04.053Z,95625.52
2023-01-11T22:39:32.599Z,95624.93
2023-01-11T22:42:00.639Z,95625.63
2023-01-11T22:47:48.572Z,95618.55
2023-01-11T22:50:16.816Z,95610.21
2023-01-11T22:52:45.044Z,95599.73
2023-01-11T22:55:13.056Z,95605.70
2023-01-11T22:57:41.269Z,95612.33
2023-01-11T23:00:11.287Z,95610.30
2023-01-11T23:02:39.838Z,95609.86
2023-01-11T23:05:08.683Z,95607.33
2023-01-11T23:07:36.601Z,95604.42
2023-01-11T23:10:07.298Z,95606.45
2023-01-11T23:12:54.078Z,95605.71
2023-01-11T23:15:22.081Z,95605.95
2023-01-11T23:17:50.050Z,95604.36
2023-01-11T23:20:18.245Z,95600.72
2023-01-11T23:22:46.275Z,95606.37
2023-01-11T23:25:14.466Z,95608.80
2023-01-11T23:27:42.582Z,95612.36
2023-01-11T23:30:11.439Z,95615.93
2023-01-11T23:32:39.431Z,95623.16
2023-01-11T23:35:09.199Z,95625.20
2023-01-11T23:37:37.281Z,95628.20
2023-01-11T23:40:05.803Z,95634.58
2023-01-11T23:42:35.622Z,95646.02
2023-01-11T23:45:06.019Z,95649.73
2023-01-11T23:47:34.211Z,95644.83
2023-01-11T23:50:02.288Z,95645.93
2023-01-11T23:52:32.519Z,95645.52
2023-01-11T23:55:00.692Z,95650.08
2023-01-11T23:57:28.832Z,95644.72
2023-01-11T23:59:56.816Z,95646.80
